sensor_id;sensor_type;location;lat;lon;timestamp;pressure;altitude;pressure_sealevel;temperature;humidity
6096;BME280;25081;42.698;23.298;2023-04-06T00:01:02;95067.88;;;0.07;73.77
6096;BME280;25081;42.698;23.298;2023-04-06T00:03:13;95061.81;;;0.03;74.20
6096;BME280;25081;42.698;23.298;2023-04-06T00:05:24;95065.09;;;0.01;73.71
6096;BME280;25081;42.698;23.298;2023-04-06T00:07:36;95058.67;;;-0.05;73.82
6096;BME280;25081;42.698;23.298;2023-04-06T00:09:47;95049.02;;;-0.05;74.00
6096;BME280;25081;42.698;23.298;2023-04-06T00:11:57;95051.80;;;-0.02;73.99
6096;BME280;25081;42.698;23.298;2023-04-06T00:14:09;95045.41;;;-0.04;73.87
6096;BME280;25081;42.698;23.298;2023-04-06T00:16:19;95042.30;;;-0.03;74.26
6096;BME280;25081;42.698;23.298;2023-04-06T00:18:30;95042.49;;;0.04;73.99
6096;BME280;25081;42.698;23.298;2023-04-06T00:20:41;95039.38;;;0.00;73.89
6096;BME280;25081;42.698;23.298;2023-04-06T00:22:52;95029.85;;;-0.05;73.95
6096;BME280;25081;42.698;23.298;2023-04-06T00:25:05;95031.98;;;-0.09;74.04
6096;BME280;25081;42.698;23.298;2023-04-06T00:27:15;95029.69;;;-0.08;74.25
6096;BME280;25081;42.698;23.298;2023-04-06T00:29:26;95028.67;;;-0.11;74.30
6096;BME280;25081;42.698;23.298;2023-04-06T00:31:37;95031.81;;;-0.07;74.31
6096;BME280;25081;42.698;23.298;2023-04-06T00:33:48;95028.70;;;-0.07;74.09
6096;BME280;25081;42.698;23.298;2023-04-06T00:35:59;95024.94;;;-0.08;73.92
6096;BME280;25081;42.698;23.298;2023-04-06T00:38:11;95020.66;;;-0.13;74.18
6096;BME280;25081;42.698;23.298;2023-04-06T00:40:21;95017.70;;;-0.10;74.05
6096;BME280;25081;42.698;23.298;2023-04-06T00:42:32;95017.54;;;-0.13;75.31
6096;BME280;25081;42.698;23.298;2023-04-06T00:44:43;95016.59;;;-0.08;74.59
6096;BME280;25081;42.698;23.298;2023-04-06T00:46:54;95018.39;;;-0.04;74.43
6096;BME280;25081;42.698;23.298;2023-04-06T00:49:05;95023.66;;;0.08;73.91
6096;BME280;25081;42.698;23.298;2023-04-06T00:51:15;95023.00;;;0.06;73.61
6096;BME280;25081;42.698;23.298;2023-04-06T00:53:26;95016.13;;;0.01;73.70
6096;BME280;25081;42.698;23.298;2023-04-06T00:55:38;95009.08;;;0.02;73.84
6096;BME280;25081;42.698;23.298;2023-04-06T00:57:48;95012.84;;;0.03;73.57
6096;BME280;25081;42.698;23.298;2023-04-06T00:59:59;95013.04;;;0.10;73.61
6096;BME280;25081;42.698;23.298;2023-04-06T01:02:10;95017.13;;;0.16;73.54
6096;BME280;25081;42.698;23.298;2023-04-06T01:04:21;95012.88;;;0.15;73.46
6096;BME280;25081;42.698;23.298;2023-04-06T01:06:32;95011.72;;;0.18;73.36
6096;BME280;25081;42.698;23.298;2023-04-06T01:08:43;95014.69;;;0.23;72.99
6096;BME280;25081;42.698;23.298;2023-04-06T01:10:55;95015.86;;;0.33;73.00
6096;BME280;25081;42.698;23.298;2023-04-06T01:13:05;95008.01;;;0.41;72.57
6096;BME280;25081;42.698;23.298;2023-04-06T01:15:17;95001.95;;;0.52;72.66
6096;BME280;25081;42.698;23.298;2023-04-06T01:17:27;95003.73;;;0.56;72.27
6096;BME280;25081;42.698;23.298;2023-04-06T01:19:38;95004.91;;;0.62;72.16
6096;BME280;25081;42.698;23.298;2023-04-06T01:21:50;95001.14;;;0.68;72.30
6096;BME280;25081;42.698;23.298;2023-04-06T01:24:01;94998.34;;;0.62;71.76
6096;BME280;25081;42.698;23.298;2023-04-06T01:26:11;95000.15;;;0.61;71.81
6096;BME280;25081;42.698;23.298;2023-04-06T01:28:22;95007.68;;;0.64;71.70
6096;BME280;25081;42.698;23.298;2023-04-06T01:30:33;94998.99;;;0.64;71.88
6096;BME280;25081;42.698;23.298;2023-04-06T01:32:44;94998.02;;;0.52;71.89
6096;BME280;25081;42.698;23.298;2023-04-06T01:34:55;94998.83;;;0.65;71.59
6096;BME280;25081;42.698;23.298;2023-04-06T01:37:06;94996.88;;;0.59;71.81
6096;BME280;25081;42.698;23.298;2023-04-06T01:39:17;94992.45;;;0.68;71.56
6096;BME280;25081;42.698;23.298;2023-04-06T01:41:27;94988.02;;;0.64;71.79
6096;BME280;25081;42.698;23.298;2023-04-06T01:43:38;94992.62;;;0.58;71.64
6096;BME280;25081;42.698;23.298;2023-04-06T01:45:49;94986.20;;;0.65;72.08
6096;BME280;25081;42.698;23.298;2023-04-06T01:48:00;94992.10;;;0.75;71.73
6096;BME280;25081;42.698;23.298;2023-04-06T01:50:11;94995.39;;;0.81;71.56
6096;BME280;25081;42.698;23.298;2023-04-06T01:52:22;94986.69;;;0.84;71.27
6096;BME280;25081;42.698;23.298;2023-04-06T01:54:36;94986.19;;;0.93;71.89
6096;BME280;25081;42.698;23.298;2023-04-06T01:56:47;94981.92;;;0.92;72.66
6096;BME280;25081;42.698;23.298;2023-04-06T01:58:58;94988.64;;;0.95;73.06
6096;BME280;25081;42.698;23.298;2023-04-06T02:01:08;94976.67;;;0.92;73.29
6096;BME280;25081;42.698;23.298;2023-04-06T02:03:20;94977.33;;;0.94;73.30
6096;BME280;25081;42.698;23.298;2023-04-06T02:05:31;94979.79;;;1.00;73.61
6096;BME280;25081;42.698;23.298;2023-04-06T02:07:42;94971.40;;;1.04;73.17
6096;BME280;25081;42.698;23.298;2023-04-06T02:09:54;94969.44;;;1.10;73.03
6096;BME280;25081;42.698;23.298;2023-04-06T02:12:05;94972.72;;;0.96;72.71
6096;BME280;25081;42.698;23.298;2023-04-06T02:14:15;94967.97;;;0.96;72.22
6096;BME280;25081;42.698;23.298;2023-04-06T02:16:26;94975.02;;;0.95;72.42
6096;BME280;25081;42.698;23.298;2023-04-06T02:18:37;94969.14;;;0.97;72.61
6096;BME280;25081;42.698;23.298;2023-04-06T02:20:47;94988.80;;;1.01;72.41
6096;BME280;25081;42.698;23.298;2023-04-06T02:22:58;94970.59;;;0.96;72.91
6096;BME280;25081;42.698;23.298;2023-04-06T02:25:10;94969.45;;;1.06;74.01
6096;BME280;25081;42.698;23.298;2023-04-06T02:27:20;94977.00;;;0.93;73.94
6096;BME280;25081;42.698;23.298;2023-04-06T02:29:31;94975.53;;;0.91;74.37
6096;BME280;25081;42.698;23.298;2023-04-06T02:31:42;94974.23;;;0.91;74.65
6096;BME280;25081;42.698;23.298;2023-04-06T02:33:53;94967.64;;;0.95;74.66
6096;BME280;25081;42.698;23.298;2023-04-06T02:36:05;94971.41;;;0.96;76.34
6096;BME280;25081;42.698;23.298;2023-04-06T02:38:16;94973.56;;;0.93;74.58
6096;BME280;25081;42.698;23.298;2023-04-06T02:40:27;94970.77;;;0.98;74.77
6096;BME280;25081;42.698;23.298;2023-04-06T02:42:37;94977.97;;;0.96;74.26
6096;BME280;25081;42.698;23.298;2023-04-06T02:44:48;94975.03;;;0.99;74.10
6096;BME280;25081;42.698;23.298;2023-04-06T02:46:59;94981.77;;;0.98;73.91
6096;BME280;25081;42.698;23.298;2023-04-06T02:49:10;94975.06;;;0.87;74.09
6096;BME280;25081;42.698;23.298;2023-04-06T02:51:21;94973.58;;;0.80;74.57
6096;BME280;25081;42.698;23.298;2023-04-06T02:53:32;94978.84;;;0.68;74.92
6096;BME280;25081;42.698;23.298;2023-04-06T02:55:43;94969.50;;;0.70;75.26
6096;BME280;25081;42.698;23.298;2023-04-06T02:57:53;94971.63;;;0.78;75.13
6096;BME280;25081;42.698;23.298;2023-04-06T03:00:07;94968.48;;;0.83;74.88
6096;BME280;25081;42.698;23.298;2023-04-06T03:02:17;94968.66;;;0.81;74.53
6096;BME280;25081;42.698;23.298;2023-04-06T03:04:28;94966.36;;;0.82;74.66
6096;BME280;25081;42.698;23.298;2023-04-06T03:06:39;94970.29;;;0.91;74.55
6096;BME280;25081;42.698;23.298;2023-04-06T03:08:50;94976.20;;;0.89;74.54
6096;BME280;25081;42.698;23.298;2023-04-06T03:11:01;94968.95;;;0.95;74.18
6096;BME280;25081;42.698;23.298;2023-04-06T03:13:12;94971.27;;;0.85;73.06
6096;BME280;25081;42.698;23.298;2023-04-06T03:15:23;94964.22;;;0.90;72.79
6096;BME280;25081;42.698;23.298;2023-04-06T03:17:33;94969.64;;;0.80;72.54
6096;BME280;25081;42.698;23.298;2023-04-06T03:19:44;94973.09;;;0.81;71.99
6096;BME280;25081;42.698;23.298;2023-04-06T03:21:55;94971.11;;;0.91;71.52
6096;BME280;25081;42.698;23.298;2023-04-06T03:24:07;94968.14;;;0.94;71.32
6096;BME280;25081;42.698;23.298;2023-04-06T03:26:18;94968.16;;;0.90;71.72
6096;BME280;25081;42.698;23.298;2023-04-06T03:28:29;94970.95;;;0.89;71.39
6096;BME280;25081;42.698;23.298;2023-04-06T03:30:40;94972.44;;;0.87;71.48
6096;BME280;25081;42.698;23.298;2023-04-06T03:32:51;94963.24;;;0.75;71.72
6096;BME280;25081;42.698;23.298;2023-04-06T03:35:02;94959.78;;;0.86;71.77
6096;BME280;25081;42.698;23.298;2023-04-06T03:37:13;94963.90;;;0.89;71.28
6096;BME280;25081;42.698;23.298;2023-04-06T03:39:24;94958.66;;;0.89;71.23
6096;BME280;25081;42.698;23.298;2023-04-06T03:41:35;94963.89;;;0.77;71.47
6096;BME280;25081;42.698;23.298;2023-04-06T03:43:45;94958.95;;;0.94;71.11
6096;BME280;25081;42.698;23.298;2023-04-06T03:45:56;94956.66;;;0.99;71.21
6096;BME280;25081;42.698;23.298;2023-04-06T03:48:07;94960.41;;;1.05;70.71
6096;BME280;25081;42.698;23.298;2023-04-06T03:50:18;94963.20;;;1.03;70.67
6096;BME280;25081;42.698;23.298;2023-04-06T03:52:29;94961.72;;;1.05;70.80
6096;BME280;25081;42.698;23.298;2023-04-06T03:54:40;94963.86;;;1.09;70.52
6096;BME280;25081;42.698;23.298;2023-04-06T03:56:51;94959.58;;;1.12;70.63
6096;BME280;25081;42.698;23.298;2023-04-06T03:59:02;94966.45;;;1.26;71.49
6096;BME280;25081;42.698;23.298;2023-04-06T04:01:12;94964.64;;;1.22;72.24
6096;BME280;25081;42.698;23.298;2023-04-06T04:03:24;94972.03;;;1.14;72.73
6096;BME280;25081;42.698;23.298;2023-04-06T04:05:35;94962.03;;;1.14;73.20
6096;BME280;25081;42.698;23.298;2023-04-06T04:07:46;94966.81;;;1.10;73.84
6096;BME280;25081;42.698;23.298;2023-04-06T04:09:56;94962.03;;;1.14;74.04
6096;BME280;25081;42.698;23.298;2023-04-06T04:12:08;94965.49;;;1.10;73.03
6096;BME280;25081;42.698;23.298;2023-04-06T04:14:19;94968.09;;;1.14;73.02
6096;BME280;25081;42.698;23.298;2023-04-06T04:16:30;94963.52;;;1.12;72.82
6096;BME280;25081;42.698;23.298;2023-04-06T04:18:41;94963.54;;;1.08;73.09
6096;BME280;25081;42.698;23.298;2023-04-06T04:20:52;94967.28;;;1.14;73.71
6096;BME280;25081;42.698;23.298;2023-04-06T04:23:03;94964.33;;;1.13;73.84
6096;BME280;25081;42.698;23.298;2023-04-06T04:25:14;94965.15;;;1.13;74.03
6096;BME280;25081;42.698;23.298;2023-04-06T04:27:25;94969.77;;;1.07;74.14
6096;BME280;25081;42.698;23.298;2023-04-06T04:29:35;94966.98;;;1.01;74.14
6096;BME280;25081;42.698;23.298;2023-04-06T04:31:46;94961.04;;;1.15;74.07
6096;BME280;25081;42.698;23.298;2023-04-06T04:33:57;94965.45;;;1.23;73.50
6096;BME280;25081;42.698;23.298;2023-04-06T04:36:09;94970.54;;;1.28;73.15
6096;BME280;25081;42.698;23.298;2023-04-06T04:38:20;94965.44;;;1.31;73.01
6096;BME280;25081;42.698;23.298;2023-04-06T04:40:31;94969.50;;;1.41;73.36
6096;BME280;25081;42.698;23.298;2023-04-06T04:42:42;94968.05;;;1.39;73.35
6096;BME280;25081;42.698;23.298;2023-04-06T04:44:53;94978.70;;;1.41;73.61
6096;BME280;25081;42.698;23.298;2023-04-06T04:47:04;94978.67;;;1.50;73.47
6096;BME280;25081;42.698;23.298;2023-04-06T04:49:14;94969.55;;;1.29;72.19
6096;BME280;25081;42.698;23.298;2023-04-06T04:51:25;94969.73;;;1.20;71.48
6096;BME280;25081;42.698;23.298;2023-04-06T04:53:36;94969.22;;;1.24;71.40
6096;BME280;25081;42.698;23.298;2023-04-06T04:55:47;94868.20;;;0.52;70.66
6096;BME280;25081;42.698;23.298;2023-04-06T04:57:57;94962.53;;;1.18;70.56
6096;BME280;25081;42.698;23.298;2023-04-06T05:00:10;94963.03;;;1.17;70.42
6096;BME280;25081;42.698;23.298;2023-04-06T05:02:21;94969.73;;;1.20;70.80
6096;BME280;25081;42.698;23.298;2023-04-06T05:04:31;94968.41;;;1.24;70.61
6096;BME280;25081;42.698;23.298;2023-04-06T05:06:42;94969.20;;;1.32;70.33
6096;BME280;25081;42.698;23.298;2023-04-06T05:08:53;94967.89;;;1.32;70.32
6096;BME280;25081;42.698;23.298;2023-04-06T05:11:04;94963.61;;;1.39;70.10
6096;BME280;25081;42.698;23.298;2023-04-06T05:13:14;94958.83;;;1.47;69.97
6096;BME280;25081;42.698;23.298;2023-04-06T05:15:25;94962.80;;;1.39;70.11
6096;BME280;25081;42.698;23.298;2023-04-06T05:17:36;94961.16;;;1.34;70.23
6096;BME280;25081;42.698;23.298;2023-04-06T05:19:48;94962.13;;;1.41;70.33
6096;BME280;25081;42.698;23.298;2023-04-06T05:21:59;94959.33;;;1.47;69.86
6096;BME280;25081;42.698;23.298;2023-04-06T05:24:09;94969.45;;;1.58;70.32
6096;BME280;25081;42.698;23.298;2023-04-06T05:26:20;94968.75;;;1.68;69.79
6096;BME280;25081;42.698;23.298;2023-04-06T05:28:31;94960.91;;;1.60;70.26
6096;BME280;25081;42.698;23.298;2023-04-06T05:30:42;94957.31;;;1.53;70.73
6096;BME280;25081;42.698;23.298;2023-04-06T05:32:53;94755.88;;;0.21;70.95
6096;BME280;25081;42.698;23.298;2023-04-06T05:35:05;94963.30;;;1.73;70.41
6096;BME280;25081;42.698;23.298;2023-04-06T05:37:16;94960.41;;;1.60;71.05
6096;BME280;25081;42.698;23.298;2023-04-06T05:39:26;94959.12;;;1.56;71.57
6096;BME280;25081;42.698;23.298;2023-04-06T05:41:37;94952.31;;;1.74;71.35
6096;BME280;25081;42.698;23.298;2023-04-06T05:43:48;94958.21;;;1.72;70.79
6096;BME280;25081;42.698;23.298;2023-04-06T05:45:58;94955.37;;;1.82;70.82
6096;BME280;25081;42.698;23.298;2023-04-06T05:48:09;94962.83;;;2.01;70.65
6096;BME280;25081;42.698;23.298;2023-04-06T05:50:20;94960.09;;;1.94;70.45
6096;BME280;25081;42.698;23.298;2023-04-06T05:52:31;94960.73;;;1.96;70.65
6096;BME280;25081;42.698;23.298;2023-04-06T05:54:42;94955.52;;;1.88;70.83
6096;BME280;25081;42.698;23.298;2023-04-06T05:56:53;94956.19;;;1.82;70.99
6096;BME280;25081;42.698;23.298;2023-04-06T05:59:04;94950.62;;;1.81;70.93
6096;BME280;25081;42.698;23.298;2023-04-06T06:01:14;94950.40;;;1.91;70.63
6096;BME280;25081;42.698;23.298;2023-04-06T06:03:25;94957.42;;;1.98;70.50
6096;BME280;25081;42.698;23.298;2023-04-06T06:05:36;94946.55;;;2.06;70.29
6096;BME280;25081;42.698;23.298;2023-04-06T06:07:47;94942.61;;;2.06;70.60
6096;BME280;25081;42.698;23.298;2023-04-06T06:09:58;94949.23;;;2.20;71.18
6096;BME280;25081;42.698;23.298;2023-04-06T06:12:09;94948.13;;;2.42;70.98
6096;BME280;25081;42.698;23.298;2023-04-06T06:14:20;94945.32;;;2.39;69.61
6096;BME280;25081;42.698;23.298;2023-04-06T06:16:31;94946.14;;;2.40;69.64
6096;BME280;25081;42.698;23.298;2023-04-06T06:18:41;94945.81;;;2.39;69.94
6096;BME280;25081;42.698;23.298;2023-04-06T06:20:52;94935.44;;;2.64;69.46
6096;BME280;25081;42.698;23.298;2023-04-06T06:23:03;94938.38;;;2.84;68.37
6096;BME280;25081;42.698;23.298;2023-04-06T06:25:14;94931.78;;;3.03;67.52
6096;BME280;25081;42.698;23.298;2023-04-06T06:27:25;94942.47;;;3.35;66.61
6096;BME280;25081;42.698;23.298;2023-04-06T06:29:35;94942.86;;;3.28;66.26
6096;BME280;25081;42.698;23.298;2023-04-06T06:31:46;94947.59;;;3.77;65.25
6096;BME280;25081;42.698;23.298;2023-04-06T06:33:57;94945.97;;;3.61;64.87
6096;BME280;25081;42.698;23.298;2023-04-06T06:36:08;94945.28;;;3.33;65.52
6096;BME280;25081;42.698;23.298;2023-04-06T06:38:19;94945.23;;;3.52;65.99
6096;BME280;25081;42.698;23.298;2023-04-06T06:40:30;94937.89;;;3.48;65.50
6096;BME280;25081;42.698;23.298;2023-04-06T06:42:41;94941.75;;;3.81;65.12
6096;BME280;25081;42.698;23.298;2023-04-06T06:44:52;94947.77;;;4.00;64.61
6096;BME280;25081;42.698;23.298;2023-04-06T06:47:03;94942.78;;;3.91;64.38
6096;BME280;25081;42.698;23.298;2023-04-06T06:49:14;94944.48;;;3.73;64.19
6096;BME280;25081;42.698;23.298;2023-04-06T06:51:25;94954.09;;;3.70;64.26
6096;BME280;25081;42.698;23.298;2023-04-06T06:53:35;94947.34;;;3.82;63.49
6096;BME280;25081;42.698;23.298;2023-04-06T06:55:46;94952.30;;;3.81;63.85
6096;BME280;25081;42.698;23.298;2023-04-06T06:57:58;94955.45;;;4.17;63.95
6096;BME280;25081;42.698;23.298;2023-04-06T07:00:11;94951.01;;;4.28;62.89
6096;BME280;25081;42.698;23.298;2023-04-06T07:02:21;94941.73;;;4.92;61.52
6096;BME280;25081;42.698;23.298;2023-04-06T07:04:32;94938.49;;;5.70;59.44
6096;BME280;25081;42.698;23.298;2023-04-06T07:06:43;94946.89;;;5.63;57.80
6096;BME280;25081;42.698;23.298;2023-04-06T07:08:54;94953.45;;;4.72;60.38
6096;BME280;25081;42.698;23.298;2023-04-06T07:11:05;94947.36;;;4.61;60.77
6096;BME280;25081;42.698;23.298;2023-04-06T07:13:16;94945.03;;;4.30;62.09
6096;BME280;25081;42.698;23.298;2023-04-06T07:15:27;94941.46;;;4.27;62.33
6096;BME280;25081;42.698;23.298;2023-04-06T07:17:38;94940.84;;;4.25;61.76
6096;BME280;25081;42.698;23.298;2023-04-06T07:19:49;94946.86;;;4.29;61.97
6096;BME280;25081;42.698;23.298;2023-04-06T07:22:00;94948.69;;;4.40;63.30
6096;BME280;25081;42.698;23.298;2023-04-06T07:24:11;94948.45;;;4.56;61.67
6096;BME280;25081;42.698;23.298;2023-04-06T07:26:22;94954.39;;;4.33;62.43
6096;BME280;25081;42.698;23.298;2023-04-06T07:28:33;94942.59;;;4.50;61.88
6096;BME280;25081;42.698;23.298;2023-04-06T07:30:44;94934.66;;;4.71;60.58
6096;BME280;25081;42.698;23.298;2023-04-06T07:32:55;94945.97;;;4.44;61.54
6096;BME280;25081;42.698;23.298;2023-04-06T07:35:06;94949.07;;;4.37;61.04
6096;BME280;25081;42.698;23.298;2023-04-06T07:37:17;94946.86;;;4.62;61.47
6096;BME280;25081;42.698;23.298;2023-04-06T07:39:28;94951.13;;;4.41;61.05
6096;BME280;25081;42.698;23.298;2023-04-06T07:41:39;94945.34;;;4.20;62.49
6096;BME280;25081;42.698;23.298;2023-04-06T07:43:49;94937.52;;;5.26;60.04
6096;BME280;25081;42.698;23.298;2023-04-06T07:46:00;94934.42;;;5.50;58.09
6096;BME280;25081;42.698;23.298;2023-04-06T07:48:11;94940.17;;;5.43;58.18
6096;BME280;25081;42.698;23.298;2023-04-06T07:50:22;94936.73;;;5.14;58.26
6096;BME280;25081;42.698;23.298;2023-04-06T07:52:34;94930.88;;;5.54;57.91
6096;BME280;25081;42.698;23.298;2023-04-06T07:54:44;94925.00;;;6.30;56.21
6096;BME280;25081;42.698;23.298;2023-04-06T07:56:55;94934.73;;;7.82;52.13
6096;BME280;25081;42.698;23.298;2023-04-06T07:59:06;94927.98;;;7.24;52.11
6096;BME280;25081;42.698;23.298;2023-04-06T08:01:17;94937.18;;;6.95;52.98
6096;BME280;25081;42.698;23.298;2023-04-06T08:03:28;94930.64;;;7.24;52.77
6096;BME280;25081;42.698;23.298;2023-04-06T08:05:39;94920.28;;;8.16;51.48
6096;BME280;25081;42.698;23.298;2023-04-06T08:07:50;94920.58;;;9.02;49.05
6096;BME280;25081;42.698;23.298;2023-04-06T08:10:00;94922.95;;;10.24;45.93
6096;BME280;25081;42.698;23.298;2023-04-06T08:12:11;94919.06;;;11.34;42.40
6096;BME280;25081;42.698;23.298;2023-04-06T08:14:22;94920.41;;;11.81;41.20
6096;BME280;25081;42.698;23.298;2023-04-06T08:16:33;94913.16;;;12.04;41.17
6096;BME280;25081;42.698;23.298;2023-04-06T08:18:44;94914.78;;;12.17;40.20
6096;BME280;25081;42.698;23.298;2023-04-06T08:20:55;94912.30;;;10.75;41.55
6096;BME280;25081;42.698;23.298;2023-04-06T08:23:06;94909.79;;;10.92;42.33
6096;BME280;25081;42.698;23.298;2023-04-06T08:25:17;94916.63;;;10.19;43.20
6096;BME280;25081;42.698;23.298;2023-04-06T08:27:28;94922.27;;;9.56;45.00
6096;BME280;25081;42.698;23.298;2023-04-06T08:29:41;94931.55;;;9.12;46.35
6096;BME280;25081;42.698;23.298;2023-04-06T08:31:51;94926.23;;;10.68;43.76
6096;BME280;25081;42.698;23.298;2023-04-06T08:34:03;94923.30;;;11.56;41.70
6096;BME280;25081;42.698;23.298;2023-04-06T08:36:14;94919.00;;;12.16;39.23
6096;BME280;25081;42.698;23.298;2023-04-06T08:38:24;94924.05;;;12.00;40.36
6096;BME280;25081;42.698;23.298;2023-04-06T08:40:38;94919.02;;;11.90;40.25
6096;BME280;25081;42.698;23.298;2023-04-06T08:42:52;94919.69;;;11.73;39.98
6096;BME280;25081;42.698;23.298;2023-04-06T08:45:01;94910.58;;;11.25;40.92
6096;BME280;25081;42.698;23.298;2023-04-06T08:47:12;94924.39;;;10.39;42.39
6096;BME280;25081;42.698;23.298;2023-04-06T08:49:23;94925.88;;;9.70;44.35
6096;BME280;25081;42.698;23.298;2023-04-06T08:51:34;94930.75;;;9.46;45.00
6096;BME280;25081;42.698;23.298;2023-04-06T08:53:44;94927.94;;;9.50;44.66
6096;BME280;25081;42.698;23.298;2023-04-06T08:55:55;94930.73;;;9.12;45.96
6096;BME280;25081;42.698;23.298;2023-04-06T08:58:07;94929.42;;;8.49;47.52
6096;BME280;25081;42.698;23.298;2023-04-06T09:00:18;94929.82;;;9.34;49.48
6096;BME280;25081;42.698;23.298;2023-04-06T09:02:29;94924.91;;;10.38;42.82
6096;BME280;25081;42.698;23.298;2023-04-06T09:04:40;94915.52;;;10.98;41.31
6096;BME280;25081;42.698;23.298;2023-04-06T09:06:51;94910.85;;;11.03;40.92
6096;BME280;25081;42.698;23.298;2023-04-06T09:09:02;94913.95;;;11.21;43.41
6096;BME280;25081;42.698;23.298;2023-04-06T09:11:14;94915.85;;;10.90;40.92
6096;BME280;25081;42.698;23.298;2023-04-06T09:13:24;94917.67;;;11.43;40.20
6096;BME280;25081;42.698;23.298;2023-04-06T09:15:35;94910.25;;;11.68;39.65
6096;BME280;25081;42.698;23.298;2023-04-06T09:20:12;94897.42;;;11.33;40.27
6096;BME280;25081;42.698;23.298;2023-04-06T09:22:23;94911.33;;;11.11;40.70
6096;BME280;25081;42.698;23.298;2023-04-06T09:24:45;94908.03;;;10.44;40.84
6096;BME280;25081;42.698;23.298;2023-04-06T09:26:55;94910.55;;;10.60;41.69
6096;BME280;25081;42.698;23.298;2023-04-06T09:29:06;94905.75;;;10.29;41.68
6096;BME280;25081;42.698;23.298;2023-04-06T09:31:20;94904.05;;;10.98;41.23
6096;BME280;25081;42.698;23.298;2023-04-06T09:33:27;94904.42;;;11.48;39.85
6096;BME280;25081;42.698;23.298;2023-04-06T09:35:38;94898.42;;;11.29;40.71
6096;BME280;25081;42.698;23.298;2023-04-06T09:37:49;94906.12;;;11.52;39.34
6096;BME280;25081;42.698;23.298;2023-04-06T09:40:05;94907.57;;;10.68;41.34
6096;BME280;25081;42.698;23.298;2023-04-06T09:42:25;94904.13;;;9.37;44.33
6096;BME280;25081;42.698;23.298;2023-04-06T09:44:35;94914.30;;;9.31;44.57
6096;BME280;25081;42.698;23.298;2023-04-06T09:46:46;94905.67;;;9.44;44.28
6096;BME280;25081;42.698;23.298;2023-04-06T09:48:57;94909.66;;;8.85;45.08
6096;BME280;25081;42.698;23.298;2023-04-06T09:51:08;94910.84;;;8.80;46.15
6096;BME280;25081;42.698;23.298;2023-04-06T09:53:20;94899.48;;;9.07;46.44
6096;BME280;25081;42.698;23.298;2023-04-06T09:55:32;94253.09;;;4.25;45.87
6096;BME280;25081;42.698;23.298;2023-04-06T09:57:45;94909.07;;;8.29;47.86
6096;BME280;25081;42.698;23.298;2023-04-06T09:59:57;94911.02;;;8.70;45.39
6096;BME280;25081;42.698;23.298;2023-04-06T10:02:07;94902.77;;;8.78;46.61
6096;BME280;25081;42.698;23.298;2023-04-06T10:04:24;94911.02;;;8.70;46.68
6096;BME280;25081;42.698;23.298;2023-04-06T10:06:34;94913.06;;;8.36;46.25
6096;BME280;25081;42.698;23.298;2023-04-06T10:08:44;94916.53;;;8.84;45.20
6096;BME280;25081;42.698;23.298;2023-04-06T10:10:55;94900.30;;;9.60;42.59
6096;BME280;25081;42.698;23.298;2023-04-06T10:13:05;94897.39;;;10.35;41.46
6096;BME280;25081;42.698;23.298;2023-04-06T10:15:17;94895.09;;;10.11;41.62
6096;BME280;25081;42.698;23.298;2023-04-06T10:17:27;94904.82;;;9.78;42.46
6096;BME280;25081;42.698;23.298;2023-04-06T10:19:41;94899.56;;;9.90;42.01
6096;BME280;25081;42.698;23.298;2023-04-06T10:21:52;94893.13;;;9.79;42.20
6096;BME280;25081;42.698;23.298;2023-04-06T10:24:02;94898.48;;;9.36;44.15
6096;BME280;25081;42.698;23.298;2023-04-06T10:26:15;94886.87;;;10.13;42.14
6096;BME280;25081;42.698;23.298;2023-04-06T10:28:29;94888.55;;;9.95;43.29
6096;BME280;25081;42.698;23.298;2023-04-06T10:30:41;94888.22;;;10.03;42.27
6096;BME280;25081;42.698;23.298;2023-04-06T10:32:47;94893.13;;;9.97;40.81
6096;BME280;25081;42.698;23.298;2023-04-06T10:35:10;94886.95;;;9.24;42.74
6096;BME280;25081;42.698;23.298;2023-04-06T10:37:20;94884.89;;;10.08;41.83
6096;BME280;25081;42.698;23.298;2023-04-06T10:39:31;94874.14;;;11.19;41.31
6096;BME280;25081;42.698;23.298;2023-04-06T10:41:43;94876.72;;;10.21;41.64
6096;BME280;25081;42.698;23.298;2023-04-06T10:43:57;94879.30;;;9.70;42.32
6096;BME280;25081;42.698;23.298;2023-04-06T10:46:08;94883.36;;;9.55;43.69
6096;BME280;25081;42.698;23.298;2023-04-06T10:48:19;94878.00;;;10.28;42.26
6096;BME280;25081;42.698;23.298;2023-04-06T10:50:30;94876.59;;;10.55;40.54
6096;BME280;25081;42.698;23.298;2023-04-06T10:52:41;94875.14;;;9.93;41.74
6096;BME280;25081;42.698;23.298;2023-04-06T10:54:52;94873.23;;;10.39;41.58
6096;BME280;25081;42.698;23.298;2023-04-06T10:57:03;94888.55;;;9.77;42.22
6096;BME280;25081;42.698;23.298;2023-04-06T10:59:17;94896.16;;;8.87;44.19
6096;BME280;25081;42.698;23.298;2023-04-06T11:01:25;94885.59;;;8.80;44.63
6096;BME280;25081;42.698;23.298;2023-04-06T11:03:44;94886.39;;;9.06;44.03
6096;BME280;25081;42.698;23.298;2023-04-06T11:05:55;94876.20;;;9.46;44.47
6096;BME280;25081;42.698;23.298;2023-04-06T11:08:06;94887.31;;;8.37;44.46
6096;BME280;25081;42.698;23.298;2023-04-06T11:10:22;94890.36;;;8.56;45.04
6096;BME280;25081;42.698;23.298;2023-04-06T11:12:34;94876.39;;;8.36;44.81
6096;BME280;25081;42.698;23.298;2023-04-06T11:14:55;94876.22;;;8.46;45.09
6096;BME280;25081;42.698;23.298;2023-04-06T11:17:06;94867.73;;;8.63;44.29
6096;BME280;25081;42.698;23.298;2023-04-06T11:19:17;94876.28;;;8.40;46.12
6096;BME280;25081;42.698;23.298;2023-04-06T11:21:35;94863.05;;;8.99;44.18
6096;BME280;25081;42.698;23.298;2023-04-06T11:23:45;94864.77;;;8.86;44.41
6096;BME280;25081;42.698;23.298;2023-04-06T11:25:56;94855.59;;;8.57;45.25
6096;BME280;25081;42.698;23.298;2023-04-06T11:28:07;94865.83;;;8.00;45.23
6096;BME280;25081;42.698;23.298;2023-04-06T11:30:18;94853.00;;;8.28;45.03
6096;BME280;25081;42.698;23.298;2023-04-06T11:32:29;94856.66;;;8.66;44.83
6096;BME280;25081;42.698;23.298;2023-04-06T11:34:39;94850.78;;;9.07;44.08
6096;BME280;25081;42.698;23.298;2023-04-06T11:36:53;94855.10;;;8.83;43.84
6096;BME280;25081;42.698;23.298;2023-04-06T11:39:01;94850.75;;;8.79;44.28
6096;BME280;25081;42.698;23.298;2023-04-06T11:41:11;94838.44;;;8.94;44.71
6096;BME280;25081;42.698;23.298;2023-04-06T11:43:28;94851.61;;;8.57;44.70
6096;BME280;25081;42.698;23.298;2023-04-06T11:45:42;94850.12;;;7.98;45.18